sensor_id;sensor_type;location;lat;lon;timestamp;pressure;altitude;pressure_sealevel;temperature;humidity
68871;BME280;55906;52.278;6.808;2023-08-07T00:01:34;100885.06;;;15.73;98.83
68871;BME280;55906;52.278;6.808;2023-08-07T00:04:01;100877.13;;;15.73;98.58
68871;BME280;55906;52.278;6.808;2023-08-07T00:06:29;100878.00;;;15.72;99.14
68871;BME280;55906;52.278;6.808;2023-08-07T00:08:56;100879.75;;;15.70;99.36
68871;BME280;55906;52.278;6.808;2023-08-07T00:11:22;100876.22;;;15.71;99.18
68871;BME280;55906;52.278;6.808;2023-08-07T00:13:49;100876.25;;;15.73;99.20
68871;BME280;55906;52.278;6.808;2023-08-07T00:16:15;100881.50;;;15.65;100.00
68871;BME280;55906;52.278;6.808;2023-08-07T00:18:42;100873.53;;;15.62;99.47
68871;BME280;55906;52.278;6.808;2023-08-07T00:21:09;100874.44;;;15.64;99.54
68871;BME280;55906;52.278;6.808;2023-08-07T00:23:37;100877.09;;;15.65;99.65
68871;BME280;55906;52.278;6.808;2023-08-07T00:26:03;100878.84;;;15.63;99.85
68871;BME280;55906;52.278;6.808;2023-08-07T00:28:30;100877.91;;;15.60;99.71
68871;BME280;55906;52.278;6.808;2023-08-07T00:30:56;100876.13;;;15.59;99.84
68871;BME280;55906;52.278;6.808;2023-08-07T00:33:23;100883.28;;;15.64;99.33
68871;BME280;55906;52.278;6.808;2023-08-07T00:35:50;100883.28;;;15.66;99.41
68871;BME280;55906;52.278;6.808;2023-08-07T00:38:16;100877.94;;;15.61;99.78
68871;BME280;55906;52.278;6.808;2023-08-07T00:40:44;100878.84;;;15.65;99.64
68871;BME280;55906;52.278;6.808;2023-08-07T00:43:11;100885.91;;;15.64;99.75
68871;BME280;55906;52.278;6.808;2023-08-07T00:45:41;100879.72;;;15.61;99.71
68871;BME280;55906;52.278;6.808;2023-08-07T00:48:09;100888.59;;;15.66;99.53
68871;BME280;55906;52.278;6.808;2023-08-07T00:50:36;100892.13;;;15.68;99.35
68871;BME280;55906;52.278;6.808;2023-08-07T00:53:03;100894.78;;;15.70;99.43
68871;BME280;55906;52.278;6.808;2023-08-07T00:55:29;100885.06;;;15.67;99.54
68871;BME280;55906;52.278;6.808;2023-08-07T00:57:58;100886.84;;;15.71;99.11
68871;BME280;55906;52.278;6.808;2023-08-07T01:00:25;100886.84;;;15.70;99.25
68871;BME280;55906;52.278;6.808;2023-08-07T01:02:54;100893.91;;;15.72;99.11
68871;BME280;55906;52.278;6.808;2023-08-07T01:05:24;100890.38;;;15.73;99.43
68871;BME280;55906;52.278;6.808;2023-08-07T01:07:53;100889.50;;;15.76;98.84
68871;BME280;55906;52.278;6.808;2023-08-07T01:10:23;100890.41;;;15.76;98.85
68871;BME280;55906;52.278;6.808;2023-08-07T01:12:59;100891.28;;;15.77;99.02
68871;BME280;55906;52.278;6.808;2023-08-07T01:15:30;100894.81;;;15.73;99.08
68871;BME280;55906;52.278;6.808;2023-08-07T01:17:59;100900.13;;;15.76;98.78
68871;BME280;55906;52.278;6.808;2023-08-07T01:20:26;100896.56;;;15.74;99.12
68871;BME280;55906;52.278;6.808;2023-08-07T01:22:54;100898.34;;;15.76;98.94
68871;BME280;55906;52.278;6.808;2023-08-07T01:25:20;100901.03;;;15.78;98.82
68871;BME280;55906;52.278;6.808;2023-08-07T01:27:55;100903.69;;;15.79;98.85
68871;BME280;55906;52.278;6.808;2023-08-07T01:30:26;100899.25;;;15.78;98.87
68871;BME280;55906;52.278;6.808;2023-08-07T01:32:59;100891.28;;;15.77;99.01
68871;BME280;55906;52.278;6.808;2023-08-07T01:35:29;100893.94;;;15.78;98.65
68871;BME280;55906;52.278;6.808;2023-08-07T01:38:00;100889.53;;;15.80;98.51
68871;BME280;55906;52.278;6.808;2023-08-07T01:40:28;100896.59;;;15.78;98.45
68871;BME280;55906;52.278;6.808;2023-08-07T01:42:56;100896.59;;;15.78;98.50
68871;BME280;55906;52.278;6.808;2023-08-07T01:45:23;100896.59;;;15.75;98.71
68871;BME280;55906;52.278;6.808;2023-08-07T01:47:50;100901.88;;;15.71;98.61
68871;BME280;55906;52.278;6.808;2023-08-07T01:50:17;100895.69;;;15.73;98.65
68871;BME280;55906;52.278;6.808;2023-08-07T01:52:44;100892.13;;;15.68;98.81
68871;BME280;55906;52.278;6.808;2023-08-07T01:55:12;100893.88;;;15.66;99.21
68871;BME280;55906;52.278;6.808;2023-08-07T01:57:39;100896.53;;;15.66;98.96
68871;BME280;55906;52.278;6.808;2023-08-07T02:00:06;100887.69;;;15.67;99.08
68871;BME280;55906;52.278;6.808;2023-08-07T02:02:34;100894.75;;;15.65;99.14
68871;BME280;55906;52.278;6.808;2023-08-07T02:05:00;100891.22;;;15.66;99.12
68871;BME280;55906;52.278;6.808;2023-08-07T02:07:27;100904.50;;;15.66;98.96
68871;BME280;55906;52.278;6.808;2023-08-07T02:09:54;100903.59;;;15.65;99.26
68871;BME280;55906;52.278;6.808;2023-08-07T02:12:22;100904.47;;;15.63;99.00
68871;BME280;55906;52.278;6.808;2023-08-07T02:14:49;100910.66;;;15.63;99.21
68871;BME280;55906;52.278;6.808;2023-08-07T02:17:16;100904.50;;;15.66;99.14
68871;BME280;55906;52.278;6.808;2023-08-07T02:19:43;100906.22;;;15.61;99.74
68871;BME280;55906;52.278;6.808;2023-08-07T02:22:09;100914.22;;;15.64;99.83
68871;BME280;55906;52.278;6.808;2023-08-07T02:24:36;100916.88;;;15.68;99.22
68871;BME280;55906;52.278;6.808;2023-08-07T02:27:03;100916.88;;;15.67;99.28
68871;BME280;55906;52.278;6.808;2023-08-07T02:29:31;100911.59;;;15.70;99.17
68871;BME280;55906;52.278;6.808;2023-08-07T02:31:59;100916.00;;;15.70;99.55
68871;BME280;55906;52.278;6.808;2023-08-07T02:34:26;100915.13;;;15.71;99.28
68871;BME280;55906;52.278;6.808;2023-08-07T02:36:52;100911.53;;;15.62;99.55
68871;BME280;55906;52.278;6.808;2023-08-07T02:39:19;100907.16;;;15.69;99.17
68871;BME280;55906;52.278;6.808;2023-08-07T02:41:46;100917.78;;;15.71;99.02
68871;BME280;55906;52.278;6.808;2023-08-07T02:44:12;100915.09;;;15.66;99.16
68871;BME280;55906;52.278;6.808;2023-08-07T02:46:40;100925.72;;;15.69;99.06
68871;BME280;55906;52.278;6.808;2023-08-07T02:49:07;100929.28;;;15.71;98.82
68871;BME280;55906;52.278;6.808;2023-08-07T02:51:33;100926.59;;;15.65;98.44
68871;BME280;55906;52.278;6.808;2023-08-07T02:54:00;100921.31;;;15.70;98.29
68871;BME280;55906;52.278;6.808;2023-08-07T02:56:27;100917.75;;;15.67;98.62
68871;BME280;55906;52.278;6.808;2023-08-07T02:58:53;100917.75;;;15.64;98.35
68871;BME280;55906;52.278;6.808;2023-08-07T03:01:20;100910.72;;;15.71;98.32
68871;BME280;55906;52.278;6.808;2023-08-07T03:03:48;100913.38;;;15.71;98.41
68871;BME280;55906;52.278;6.808;2023-08-07T03:06:15;100914.22;;;15.68;98.55
68871;BME280;55906;52.278;6.808;2023-08-07T03:08:41;100916.88;;;15.67;98.49
68871;BME280;55906;52.278;6.808;2023-08-07T03:11:08;100916.88;;;15.68;98.09
68871;BME280;55906;52.278;6.808;2023-08-07T03:13:35;100906.28;;;15.67;98.18
68871;BME280;55906;52.278;6.808;2023-08-07T03:16:02;100910.66;;;15.60;98.39
68871;BME280;55906;52.278;6.808;2023-08-07T03:18:30;100908.00;;;15.63;98.52
68871;BME280;55906;52.278;6.808;2023-08-07T03:20:58;100922.19;;;15.67;98.26
68871;BME280;55906;52.278;6.808;2023-08-07T03:23:27;100908.88;;;15.61;98.36
68871;BME280;55906;52.278;6.808;2023-08-07T03:26:02;100907.88;;;15.51;98.42
68871;BME280;55906;52.278;6.808;2023-08-07T03:28:29;100906.06;;;15.43;98.87
68871;BME280;55906;52.278;6.808;2023-08-07T03:30:56;100918.41;;;15.41;99.12
68871;BME280;55906;52.278;6.808;2023-08-07T03:33:22;100914.84;;;15.35;99.58
68871;BME280;55906;52.278;6.808;2023-08-07T03:35:49;100921.81;;;15.24;100.00
68871;BME280;55906;52.278;6.808;2023-08-07T03:38:17;100913.88;;;15.26;99.79
68871;BME280;55906;52.278;6.808;2023-08-07T03:40:44;100918.28;;;15.24;99.93
68871;BME280;55906;52.278;6.808;2023-08-07T03:43:10;100919.09;;;15.15;100.00
68871;BME280;55906;52.278;6.808;2023-08-07T03:45:38;100916.47;;;15.15;100.00
68871;BME280;55906;52.278;6.808;2023-08-07T03:48:04;100909.34;;;15.11;100.00
68871;BME280;55906;52.278;6.808;2023-08-07T03:50:31;100917.28;;;15.10;100.00
68871;BME280;55906;52.278;6.808;2023-08-07T03:53:00;100919.91;;;15.03;100.00
68871;BME280;55906;52.278;6.808;2023-08-07T03:55:28;100918.06;;;14.96;100.00
68871;BME280;55906;52.278;6.808;2023-08-07T03:57:55;100917.22;;;15.00;100.00
68871;BME280;55906;52.278;6.808;2023-08-07T04:00:21;100920.75;;;15.01;100.00
68871;BME280;55906;52.278;6.808;2023-08-07T04:02:48;100917.16;;;14.93;100.00
68871;BME280;55906;52.278;6.808;2023-08-07T04:05:15;100915.41;;;14.96;100.00
68871;BME280;55906;52.278;6.808;2023-08-07T04:07:41;100918.94;;;14.94;100.00
68871;BME280;55906;52.278;6.808;2023-08-07T04:10:08;100912.69;;;14.87;100.00
68871;BME280;55906;52.278;6.808;2023-08-07T04:12:36;100904.78;;;14.90;100.00
68871;BME280;55906;52.278;6.808;2023-08-07T04:15:04;100905.66;;;14.91;100.00
68871;BME280;55906;52.278;6.808;2023-08-07T04:17:32;100912.72;;;14.92;100.00
68871;BME280;55906;52.278;6.808;2023-08-07T04:19:58;100918.03;;;14.92;100.00
68871;BME280;55906;52.278;6.808;2023-08-07T04:22:25;100918.00;;;14.90;100.00
68871;BME280;55906;52.278;6.808;2023-08-07T04:24:52;100916.28;;;14.94;100.00
68871;BME280;55906;52.278;6.808;2023-08-07T04:27:18;100918.06;;;14.96;100.00
68871;BME280;55906;52.278;6.808;2023-08-07T04:29:46;100919.84;;;14.96;100.00
68871;BME280;55906;52.278;6.808;2023-08-07T04:32:13;100926.91;;;14.97;100.00
68871;BME280;55906;52.278;6.808;2023-08-07T04:34:39;100924.31;;;15.03;100.00
68871;BME280;55906;52.278;6.808;2023-08-07T04:37:06;100935.81;;;15.05;100.00
68871;BME280;55906;52.278;6.808;2023-08-07T04:39:33;100932.28;;;15.06;100.00
68871;BME280;55906;52.278;6.808;2023-08-07T04:42:01;100929.63;;;15.06;100.00
68871;BME280;55906;52.278;6.808;2023-08-07T04:44:27;100922.59;;;15.11;100.00
68871;BME280;55906;52.278;6.808;2023-08-07T04:46:55;100921.72;;;15.09;100.00
68871;BME280;55906;52.278;6.808;2023-08-07T04:49:22;100925.25;;;15.11;100.00
68871;BME280;55906;52.278;6.808;2023-08-07T04:51:48;100927.97;;;15.19;100.00
68871;BME280;55906;52.278;6.808;2023-08-07T04:54:15;100928.84;;;15.16;100.00
68871;BME280;55906;52.278;6.808;2023-08-07T04:56:42;100923.59;;;15.22;99.96
68871;BME280;55906;52.278;6.808;2023-08-07T04:59:09;100923.59;;;15.25;100.00
68871;BME280;55906;52.278;6.808;2023-08-07T05:01:36;100925.41;;;15.29;100.00
68871;BME280;55906;52.278;6.808;2023-08-07T05:04:05;100927.19;;;15.30;99.83
68871;BME280;55906;52.278;6.808;2023-08-07T05:06:32;100941.31;;;15.32;100.00
68871;BME280;55906;52.278;6.808;2023-08-07T05:08:58;100939.59;;;15.37;99.91
68871;BME280;55906;52.278;6.808;2023-08-07T05:11:25;100942.25;;;15.39;99.96
68871;BME280;55906;52.278;6.808;2023-08-07T05:13:52;100945.78;;;15.38;100.00
68871;BME280;55906;52.278;6.808;2023-08-07T05:16:18;100946.72;;;15.45;100.00
68871;BME280;55906;52.278;6.808;2023-08-07T05:18:45;100948.53;;;15.52;99.74
68871;BME280;55906;52.278;6.808;2023-08-07T05:21:13;100942.34;;;15.50;100.00
68871;BME280;55906;52.278;6.808;2023-08-07T05:23:39;100945.91;;;15.53;100.00
68871;BME280;55906;52.278;6.808;2023-08-07T05:26:06;100948.63;;;15.59;99.95
68871;BME280;55906;52.278;6.808;2023-08-07T05:28:33;100957.53;;;15.66;99.70
68871;BME280;55906;52.278;6.808;2023-08-07T05:30:59;100962.00;;;15.73;99.82
68871;BME280;55906;52.278;6.808;2023-08-07T05:33:26;100964.69;;;15.79;99.57
68871;BME280;55906;52.278;6.808;2023-08-07T05:35:52;100967.38;;;15.85;98.95
68871;BME280;55906;52.278;6.808;2023-08-07T05:38:22;100970.97;;;15.93;98.68
68871;BME280;55906;52.278;6.808;2023-08-07T05:40:48;100964.81;;;16.02;98.64
68871;BME280;55906;52.278;6.808;2023-08-07T05:43:16;100974.59;;;16.08;98.13
68871;BME280;55906;52.278;6.808;2023-08-07T05:45:43;100973.72;;;16.15;97.97
68871;BME280;55906;52.278;6.808;2023-08-07T05:48:11;100984.38;;;16.18;97.86
68871;BME280;55906;52.278;6.808;2023-08-07T05:50:38;100989.72;;;16.28;97.66
68871;BME280;55906;52.278;6.808;2023-08-07T05:53:04;100991.53;;;16.36;97.43
68871;BME280;55906;52.278;6.808;2023-08-07T05:55:32;100987.13;;;16.42;96.72
68871;BME280;55906;52.278;6.808;2023-08-07T05:57:59;100989.75;;;16.38;96.28
68871;BME280;55906;52.278;6.808;2023-08-07T06:00:26;100983.63;;;16.55;96.50
68871;BME280;55906;52.278;6.808;2023-08-07T06:02:53;100985.41;;;16.59;95.24
68871;BME280;55906;52.278;6.808;2023-08-07T06:05:20;100981.94;;;16.68;94.67
68871;BME280;55906;52.278;6.808;2023-08-07T06:07:47;100985.47;;;16.70;94.65
68871;BME280;55906;52.278;6.808;2023-08-07T06:10:13;100987.28;;;16.83;94.68
68871;BME280;55906;52.278;6.808;2023-08-07T06:12:41;100991.75;;;16.95;94.31
68871;BME280;55906;52.278;6.808;2023-08-07T06:15:09;101002.41;;;17.03;93.81
68871;BME280;55906;52.278;6.808;2023-08-07T06:17:35;101001.53;;;17.07;93.31
68871;BME280;55906;52.278;6.808;2023-08-07T06:20:06;101002.41;;;17.07;92.23
68871;BME280;55906;52.278;6.808;2023-08-07T06:22:34;101005.97;;;17.06;92.61
68871;BME280;55906;52.278;6.808;2023-08-07T06:25:01;101007.72;;;17.07;92.39
68871;BME280;55906;52.278;6.808;2023-08-07T06:27:28;101011.28;;;17.11;91.40
68871;BME280;55906;52.278;6.808;2023-08-07T06:29:57;101015.72;;;17.13;91.30
68871;BME280;55906;52.278;6.808;2023-08-07T06:32:24;101015.72;;;17.18;91.54
68871;BME280;55906;52.278;6.808;2023-08-07T06:34:51;101017.47;;;17.11;91.29
68871;BME280;55906;52.278;6.808;2023-08-07T06:37:17;101028.09;;;17.07;91.24
68871;BME280;55906;52.278;6.808;2023-08-07T06:39:44;101032.53;;;17.09;91.24
68871;BME280;55906;52.278;6.808;2023-08-07T06:42:11;101041.41;;;17.05;90.61
68871;BME280;55906;52.278;6.808;2023-08-07T06:44:38;101045.84;;;17.09;90.50
68871;BME280;55906;52.278;6.808;2023-08-07T06:47:07;101051.13;;;17.03;90.52
68871;BME280;55906;52.278;6.808;2023-08-07T06:49:34;101052.91;;;17.00;91.13
68871;BME280;55906;52.278;6.808;2023-08-07T06:52:00;101053.81;;;17.08;90.98
68871;BME280;55906;52.278;6.808;2023-08-07T06:54:27;101055.56;;;17.01;90.89
68871;BME280;55906;52.278;6.808;2023-08-07T06:56:53;101058.22;;;17.04;89.42
68871;BME280;55906;52.278;6.808;2023-08-07T06:59:20;101068.88;;;17.13;89.78
68871;BME280;55906;52.278;6.808;2023-08-07T07:01:47;101066.22;;;17.16;88.75
68871;BME280;55906;52.278;6.808;2023-08-07T07:04:16;101070.66;;;17.17;88.51
68871;BME280;55906;52.278;6.808;2023-08-07T07:06:43;101061.81;;;17.26;87.82
68871;BME280;55906;52.278;6.808;2023-08-07T07:09:10;101066.28;;;17.41;86.11
68871;BME280;55906;52.278;6.808;2023-08-07T07:11:41;101065.44;;;17.69;86.69
68871;BME280;55906;52.278;6.808;2023-08-07T07:14:08;101064.53;;;17.91;86.16
68871;BME280;55906;52.278;6.808;2023-08-07T07:16:35;101062.75;;;18.00;82.96
68871;BME280;55906;52.278;6.808;2023-08-07T07:19:03;101070.72;;;18.00;85.14
68871;BME280;55906;52.278;6.808;2023-08-07T07:21:33;101084.94;;;17.76;85.95
68871;BME280;55906;52.278;6.808;2023-08-07T07:23:59;101089.34;;;17.51;86.72
68871;BME280;55906;52.278;6.808;2023-08-07T07:26:26;101094.63;;;17.40;86.03
68871;BME280;55906;52.278;6.808;2023-08-07T07:28:53;101091.06;;;17.27;87.02
68871;BME280;55906;52.278;6.808;2023-08-07T07:31:19;101099.94;;;17.30;87.04
68871;BME280;55906;52.278;6.808;2023-08-07T07:33:46;101096.38;;;17.21;87.47
68871;BME280;55906;52.278;6.808;2023-08-07T07:36:16;101103.50;;;17.32;86.53
68871;BME280;55906;52.278;6.808;2023-08-07T07:38:46;101104.41;;;17.47;86.24
68871;BME280;55906;52.278;6.808;2023-08-07T07:41:13;101107.94;;;17.46;84.63
68871;BME280;55906;52.278;6.808;2023-08-07T07:43:40;101114.19;;;17.59;84.96
68871;BME280;55906;52.278;6.808;2023-08-07T07:46:07;101109.78;;;17.67;82.86
68871;BME280;55906;52.278;6.808;2023-08-07T07:48:33;101117.78;;;17.76;83.14
68871;BME280;55906;52.278;6.808;2023-08-07T07:51:01;101120.44;;;17.95;82.59
68871;BME280;55906;52.278;6.808;2023-08-07T07:53:28;101124.84;;;18.17;82.23
68871;BME280;55906;52.278;6.808;2023-08-07T07:55:56;101126.63;;;18.30;81.28
68871;BME280;55906;52.278;6.808;2023-08-07T07:58:23;101120.38;;;18.48;81.38
68871;BME280;55906;52.278;6.808;2023-08-07T08:00:50;101127.47;;;18.64;80.40
68871;BME280;55906;52.278;6.808;2023-08-07T08:03:19;101120.28;;;18.84;78.55
68871;BME280;55906;52.278;6.808;2023-08-07T08:05:48;101122.88;;;19.01;78.71
68871;BME280;55906;52.278;6.808;2023-08-07T08:08:14;101124.75;;;18.81;78.40
68871;BME280;55906;52.278;6.808;2023-08-07T08:10:42;101135.44;;;18.75;77.87
68871;BME280;55906;52.278;6.808;2023-08-07T08:13:10;101133.72;;;18.62;75.59
68871;BME280;55906;52.278;6.808;2023-08-07T08:15:37;101140.81;;;18.53;75.96
68871;BME280;55906;52.278;6.808;2023-08-07T08:18:04;101150.56;;;18.59;76.05
68871;BME280;55906;52.278;6.808;2023-08-07T08:20:30;101155.88;;;18.61;74.34
68871;BME280;55906;52.278;6.808;2023-08-07T08:22:58;101145.22;;;18.59;74.46
68871;BME280;55906;52.278;6.808;2023-08-07T08:25:25;101161.22;;;18.68;74.11
68871;BME280;55906;52.278;6.808;2023-08-07T08:27:51;101162.97;;;18.81;74.19
68871;BME280;55906;52.278;6.808;2023-08-07T08:30:20;101154.91;;;19.00;73.25
68871;BME280;55906;52.278;6.808;2023-08-07T08:32:46;101170.00;;;18.98;72.94
68871;BME280;55906;52.278;6.808;2023-08-07T08:35:14;101178.09;;;18.78;71.83
68871;BME280;55906;52.278;6.808;2023-08-07T08:37:40;101198.53;;;18.47;74.21
68871;BME280;55906;52.278;6.808;2023-08-07T08:40:08;101195.91;;;18.24;72.81
68871;BME280;55906;52.278;6.808;2023-08-07T08:42:38;101205.63;;;17.99;72.94
68871;BME280;55906;52.278;6.808;2023-08-07T08:45:08;101199.41;;;18.05;72.31
68871;BME280;55906;52.278;6.808;2023-08-07T08:47:38;101202.97;;;17.99;71.76
68871;BME280;55906;52.278;6.808;2023-08-07T08:50:08;101209.22;;;18.47;71.44
68871;BME280;55906;52.278;6.808;2023-08-07T08:52:37;101201.13;;;18.94;71.12
68871;BME280;55906;52.278;6.808;2023-08-07T08:55:05;101200.22;;;19.06;71.28
68871;BME280;55906;52.278;6.808;2023-08-07T08:57:32;101210.81;;;19.24;70.29
68871;BME280;55906;52.278;6.808;2023-08-07T09:00:00;101205.34;;;19.61;70.08
68871;BME280;55906;52.278;6.808;2023-08-07T09:02:28;101198.06;;;19.87;67.97
68871;BME280;55906;52.278;6.808;2023-08-07T09:04:56;101206.84;;;20.01;65.08
68871;BME280;55906;52.278;6.808;2023-08-07T09:07:23;101205.50;;;20.57;67.30
68871;BME280;55906;52.278;6.808;2023-08-07T09:09:52;101199.88;;;20.86;64.17
68871;BME280;55906;52.278;6.808;2023-08-07T09:12:20;101201.25;;;21.21;62.40
68871;BME280;55906;52.278;6.808;2023-08-07T09:14:52;101202.47;;;21.66;61.96
68871;BME280;55906;52.278;6.808;2023-08-07T09:17:21;101200.75;;;21.62;60.25
68871;BME280;55906;52.278;6.808;2023-08-07T09:19:50;101209.63;;;21.65;58.90
68871;BME280;55906;52.278;6.808;2023-08-07T09:22:19;101195.00;;;21.86;58.28
68871;BME280;55906;52.278;6.808;2023-08-07T09:24:45;101209.28;;;21.88;60.30
68871;BME280;55906;52.278;6.808;2023-08-07T09:27:12;101218.88;;;21.40;59.52
68871;BME280;55906;52.278;6.808;2023-08-07T09:29:39;101215.78;;;21.01;60.76
68871;BME280;55906;52.278;6.808;2023-08-07T09:32:07;101232.47;;;20.28;64.63
68871;BME280;55906;52.278;6.808;2023-08-07T09:34:34;101234.50;;;19.96;66.29
68871;BME280;55906;52.278;6.808;2023-08-07T09:37:01;101221.34;;;19.65;67.07
68871;BME280;55906;52.278;6.808;2023-08-07T09:39:31;101229.13;;;20.00;66.80
68871;BME280;55906;52.278;6.808;2023-08-07T09:41:57;101230.66;;;20.30;66.42
68871;BME280;55906;52.278;6.808;2023-08-07T09:44:24;101215.09;;;20.80;65.53
68871;BME280;55906;52.278;6.808;2023-08-07T09:46:51;101216.19;;;21.42;63.63
68871;BME280;55906;52.278;6.808;2023-08-07T09:49:18;101220.78;;;21.95;62.38
68871;BME280;55906;52.278;6.808;2023-08-07T09:51:45;101219.59;;;21.53;61.41
68871;BME280;55906;52.278;6.808;2023-08-07T09:54:13;101222.19;;;21.60;59.69
68871;BME280;55906;52.278;6.808;2023-08-07T09:56:41;101228.47;;;21.58;58.82
68871;BME280;55906;52.278;6.808;2023-08-07T09:59:08;101226.97;;;21.35;56.16
68871;BME280;55906;52.278;6.808;2023-08-07T10:01:36;101238.09;;;20.97;55.62
68871;BME280;55906;52.278;6.808;2023-08-07T10:04:05;101246.28;;;20.82;54.56
68871;BME280;55906;52.278;6.808;2023-08-07T10:06:31;101239.53;;;21.32;50.92
68871;BME280;55906;52.278;6.808;2023-08-07T10:08:59;101241.84;;;21.58;50.31
68871;BME280;55906;52.278;6.808;2023-08-07T10:11:28;101238.53;;;22.05;48.12
68871;BME280;55906;52.278;6.808;2023-08-07T10:13:57;101241.13;;;22.13;49.38
68871;BME280;55906;52.278;6.808;2023-08-07T10:16:25;101249.09;;;22.17;50.45
68871;BME280;55906;52.278;6.808;2023-08-07T10:18:52;101257.94;;;21.56;49.77
68871;BME280;55906;52.278;6.808;2023-08-07T10:21:19;101254.03;;;21.09;51.27
68871;BME280;55906;52.278;6.808;2023-08-07T10:23:48;101262.75;;;21.28;51.15
68871;BME280;55906;52.278;6.808;2023-08-07T10:26:16;101267.78;;;21.56;50.51
68871;BME280;55906;52.278;6.808;2023-08-07T10:28:43;101262.78;;;21.93;48.65
68871;BME280;55906;52.278;6.808;2023-08-07T10:31:12;101248.72;;;22.40;48.54
68871;BME280;55906;52.278;6.808;2023-08-07T10:33:40;101265.81;;;22.85;46.07
68871;BME280;55906;52.278;6.808;2023-08-07T10:36:10;101256.44;;;23.08;42.70
68871;BME280;55906;52.278;6.808;2023-08-07T10:38:37;101259.88;;;23.62;43.68
68871;BME280;55906;52.278;6.808;2023-08-07T10:41:06;101258.16;;;23.98;43.31
68871;BME280;55906;52.278;6.808;2023-08-07T10:43:37;101248.13;;;24.05;42.63
68871;BME280;55906;52.278;6.808;2023-08-07T10:46:04;101264.59;;;23.49;41.80
68871;BME280;55906;52.278;6.808;2023-08-07T10:48:39;101264.94;;;23.31;42.32
68871;BME280;55906;52.278;6.808;2023-08-07T10:51:07;101278.56;;;22.71;43.48
68871;BME280;55906;52.278;6.808;2023-08-07T10:53:35;101278.19;;;22.42;44.72
68871;BME280;55906;52.278;6.808;2023-08-07T10:56:03;101289.97;;;22.31;45.05
68871;BME280;55906;52.278;6.808;2023-08-07T10:58:33;101301.22;;;21.92;46.11
68871;BME280;55906;52.278;6.808;2023-08-07T11:01:21;101309.69;;;21.58;47.27
68871;BME280;55906;52.278;6.808;2023-08-07T11:03:51;101295.25;;;21.71;46.64
68871;BME280;55906;52.278;6.808;2023-08-07T11:06:21;101309.91;;;21.40;48.99
68871;BME280;55906;52.278;6.808;2023-08-07T11:08:49;101322.88;;;20.92;49.25
68871;BME280;55906;52.278;6.808;2023-08-07T11:11:16;101313.88;;;21.01;49.68
68871;BME280;55906;52.278;6.808;2023-08-07T11:13:42;101313.06;;;20.93;48.32
68871;BME280;55906;52.278;6.808;2023-08-07T11:16:09;101319.75;;;21.38;49.11
68871;BME280;55906;52.278;6.808;2023-08-07T11:18:38;101318.91;;;21.33;48.15
68871;BME280;55906;52.278;6.808;2023-08-07T11:21:08;101321.41;;;21.48;46.33
68871;BME280;55906;52.278;6.808;2023-08-07T11:23:36;101321.03;;;21.79;45.65
68871;BME280;55906;52.278;6.808;2023-08-07T11:26:02;101318.50;;;22.35;44.28
68871;BME280;55906;52.278;6.808;2023-08-07T11:28:29;101321.00;;;22.48;45.29
68871;BME280;55906;52.278;6.808;2023-08-07T11:30:56;101318.69;;;22.80;44.68
68871;BME280;55906;52.278;6.808;2023-08-07T11:33:24;101306.78;;;22.95;43.82
68871;BME280;55906;52.278;6.808;2023-08-07T11:35:51;101303.09;;;23.02;44.23
68871;BME280;55906;52.278;6.808;2023-08-07T11:38:30;101322.44;;;23.19;46.12
68871;BME280;55906;52.278;6.808;2023-08-07T11:40:58;101304.25;;;23.35;43.86
68871;BME280;55906;52.278;6.808;2023-08-07T11:43:27;101304.66;;;23.61;44.02
68871;BME280;55906;52.278;6.808;2023-08-07T11:45:55;101312.34;;;23.78;44.08
68871;BME280;55906;52.278;6.808;2023-08-07T11:48:23;101310.03;;;23.61;44.38
68871;BME280;55906;52.278;6.808;2023-08-07T11:50:51;101328.03;;;23.58;43.57
68871;BME280;55906;52.278;6.808;2023-08-07T11:53:18;101321.16;;;23.86;43.06
68871;BME280;55906;52.278;6.808;2023-08-07T11:55:51;101319.63;;;24.13;41.95
68871;BME280;55906;52.278;6.808;2023-08-07T11:58:18;101321.63;;;24.05;41.96
68871;BME280;55906;52.278;6.808;2023-08-07T12:00:46;101321.81;;;23.96;42.75
68871;BME280;55906;52.278;6.808;2023-08-07T12:03:26;101318.00;;;24.06;42.85
68871;BME280;55906;52.278;6.808;2023-08-07T12:05:55;101315.69;;;23.46;44.03
68871;BME280;55906;52.278;6.808;2023-08-07T12:08:22;101321.69;;;23.13;43.70
68871;BME280;55906;52.278;6.808;2023-08-07T12:10:50;101337.06;;;23.03;44.67
68871;BME280;55906;52.278;6.808;2023-08-07T12:13:23;101330.00;;;22.44;45.70
68871;BME280;55906;52.278;6.808;2023-08-07T12:15:51;101341.00;;;22.25;45.79
68871;BME280;55906;52.278;6.808;2023-08-07T12:18:19;101335.91;;;22.04;47.02
68871;BME280;55906;52.278;6.808;2023-08-07T12:20:48;101338.25;;;22.30;46.67
68871;BME280;55906;52.278;6.808;2023-08-07T12:23:15;101328.31;;;22.37;46.96
68871;BME280;55906;52.278;6.808;2023-08-07T12:25:43;101334.19;;;21.97;47.50
68871;BME280;55906;52.278;6.808;2023-08-07T12:28:11;101330.38;;;22.18;47.12
68871;BME280;55906;52.278;6.808;2023-08-07T12:30:38;101333.72;;;22.33;46.71
68871;BME280;55906;52.278;6.808;2023-08-07T12:33:05;101327.72;;;22.73;47.23
68871;BME280;55906;52.278;6.808;2023-08-07T12:35:33;101332.00;;;23.34;45.69
68871;BME280;55906;52.278;6.808;2023-08-07T12:37:59;101331.94;;;23.37;45.13
68871;BME280;55906;52.278;6.808;2023-08-07T12:40:27;101341.50;;;23.53;42.69
68871;BME280;55906;52.278;6.808;2023-08-07T12:42:53;101342.69;;;23.37;43.53
68871;BME280;55906;52.278;6.808;2023-08-07T12:45:22;101333.06;;;23.25;41.74
68871;BME280;55906;52.278;6.808;2023-08-07T12:47:48;101347.78;;;23.52;41.84
68871;BME280;55906;52.278;6.808;2023-08-07T12:50:15;101336.38;;;24.26;38.77